sensor_id;sensor_type;location;lat;lon;timestamp;pressure;altitude;pressure_sealevel;temperature;humidity
76257;BME280;65074;50.436;8.672;2022-12-18T00:01:04;100864.34;;;-8.86;100.00
76257;BME280;65074;50.436;8.672;2022-12-18T00:03:33;100865.28;;;-8.87;100.00
76257;BME280;65074;50.436;8.672;2022-12-18T00:05:58;100859.13;;;-8.86;100.00
76257;BME280;65074;50.436;8.672;2022-12-18T00:08:24;100860.97;;;-8.88;100.00
76257;BME280;65074;50.436;8.672;2022-12-18T00:10:49;100861.47;;;-8.82;100.00
76257;BME280;65074;50.436;8.672;2022-12-18T00:13:14;100854.97;;;-8.61;100.00
76257;BME280;65074;50.436;8.672;2022-12-18T00:15:40;100850.69;;;-8.33;100.00
76257;BME280;65074;50.436;8.672;2022-12-18T00:18:06;100850.13;;;-8.67;100.00
76257;BME280;65074;50.436;8.672;2022-12-18T00:20:35;100847.88;;;-8.58;100.00
76257;BME280;65074;50.436;8.672;2022-12-18T00:23:01;100841.91;;;-8.75;100.00
76257;BME280;65074;50.436;8.672;2022-12-18T00:25:26;100853.56;;;-8.66;100.00
76257;BME280;65074;50.436;8.672;2022-12-18T00:27:52;100840.16;;;-8.74;100.00
76257;BME280;65074;50.436;8.672;2022-12-18T00:30:17;100842.84;;;-8.76;100.00
76257;BME280;65074;50.436;8.672;2022-12-18T00:32:44;100840.31;;;-8.91;100.00
76257;BME280;65074;50.436;8.672;2022-12-18T00:35:09;100839.91;;;-8.99;100.00
76257;BME280;65074;50.436;8.672;2022-12-18T00:37:35;100849.53;;;-8.86;100.00
76257;BME280;65074;50.436;8.672;2022-12-18T00:40:00;100850.41;;;-9.01;100.00
76257;BME280;65074;50.436;8.672;2022-12-18T00:42:27;100840.72;;;-9.13;100.00
76257;BME280;65074;50.436;8.672;2022-12-18T00:45:11;100849.31;;;-9.11;100.00
76257;BME280;65074;50.436;8.672;2022-12-18T00:47:36;100849.47;;;-9.14;100.00
76257;BME280;65074;50.436;8.672;2022-12-18T00:50:02;100856.28;;;-9.11;100.00
76257;BME280;65074;50.436;8.672;2022-12-18T00:52:28;100852.78;;;-9.26;100.00
76257;BME280;65074;50.436;8.672;2022-12-18T00:54:53;100848.16;;;-9.21;100.00
76257;BME280;65074;50.436;8.672;2022-12-18T00:57:18;100850.34;;;-9.29;100.00
76257;BME280;65074;50.436;8.672;2022-12-18T00:59:44;100852.13;;;-9.45;100.00
76257;BME280;65074;50.436;8.672;2022-12-18T01:02:10;100849.38;;;-9.42;100.00
76257;BME280;65074;50.436;8.672;2022-12-18T01:04:36;100848.78;;;-9.47;100.00
76257;BME280;65074;50.436;8.672;2022-12-18T01:07:01;100855.69;;;-9.46;100.00
76257;BME280;65074;50.436;8.672;2022-12-18T01:09:26;100857.59;;;-9.50;100.00
76257;BME280;65074;50.436;8.672;2022-12-18T01:11:52;100869.97;;;-9.53;100.00
76257;BME280;65074;50.436;8.672;2022-12-18T01:14:17;100866.78;;;-9.58;100.00
76257;BME280;65074;50.436;8.672;2022-12-18T01:16:43;100873.41;;;-9.53;100.00
76257;BME280;65074;50.436;8.672;2022-12-18T01:19:08;100878.44;;;-9.50;100.00
76257;BME280;65074;50.436;8.672;2022-12-18T01:21:34;100882.00;;;-9.51;100.00
76257;BME280;65074;50.436;8.672;2022-12-18T01:24:03;100886.69;;;-9.57;100.00
76257;BME280;65074;50.436;8.672;2022-12-18T01:26:28;100884.59;;;-9.51;100.00
76257;BME280;65074;50.436;8.672;2022-12-18T01:28:58;100888.44;;;-9.58;100.00
76257;BME280;65074;50.436;8.672;2022-12-18T01:31:27;100875.94;;;-9.67;100.00
76257;BME280;65074;50.436;8.672;2022-12-18T01:33:54;100866.38;;;-9.66;100.00
76257;BME280;65074;50.436;8.672;2022-12-18T01:36:28;100873.66;;;-9.57;100.00
76257;BME280;65074;50.436;8.672;2022-12-18T01:38:54;100868.72;;;-9.62;100.00
76257;BME280;65074;50.436;8.672;2022-12-18T01:41:26;100880.06;;;-9.78;100.00
76257;BME280;65074;50.436;8.672;2022-12-18T01:43:55;100872.78;;;-9.87;100.00
76257;BME280;65074;50.436;8.672;2022-12-18T01:46:23;100876.19;;;-9.87;100.00
76257;BME280;65074;50.436;8.672;2022-12-18T01:48:54;100871.34;;;-9.93;100.00
76257;BME280;65074;50.436;8.672;2022-12-18T01:51:20;100869.91;;;-9.99;100.00
76257;BME280;65074;50.436;8.672;2022-12-18T01:53:46;100865.53;;;-9.98;100.00
76257;BME280;65074;50.436;8.672;2022-12-18T01:56:14;100863.09;;;-10.01;100.00
76257;BME280;65074;50.436;8.672;2022-12-18T01:59:03;100869.22;;;-10.02;100.00
76257;BME280;65074;50.436;8.672;2022-12-18T02:01:31;100874.34;;;-10.01;100.00
76257;BME280;65074;50.436;8.672;2022-12-18T02:06:45;100869.09;;;-10.15;100.00
76257;BME280;65074;50.436;8.672;2022-12-18T02:09:20;100860.34;;;-10.14;100.00
76257;BME280;65074;50.436;8.672;2022-12-18T02:14:27;100856.72;;;-10.27;100.00
76257;BME280;65074;50.436;8.672;2022-12-18T02:17:07;100856.91;;;-10.30;100.00
76257;BME280;65074;50.436;8.672;2022-12-18T02:27:41;100856.09;;;-10.47;100.00
76257;BME280;65074;50.436;8.672;2022-12-18T02:30:10;100847.22;;;-10.43;100.00
76257;BME280;65074;50.436;8.672;2022-12-18T02:32:44;100854.00;;;-10.41;100.00
76257;BME280;65074;50.436;8.672;2022-12-18T02:35:17;100853.56;;;-10.49;100.00
76257;BME280;65074;50.436;8.672;2022-12-18T02:37:47;100860.72;;;-10.52;100.00
76257;BME280;65074;50.436;8.672;2022-12-18T02:40:14;100866.91;;;-10.55;100.00
76257;BME280;65074;50.436;8.672;2022-12-18T02:42:41;100865.69;;;-10.65;100.00
76257;BME280;65074;50.436;8.672;2022-12-18T02:45:08;100875.34;;;-10.67;100.00
76257;BME280;65074;50.436;8.672;2022-12-18T02:47:38;100869.00;;;-10.79;100.00
76257;BME280;65074;50.436;8.672;2022-12-18T02:50:44;100873.28;;;-10.78;100.00
76257;BME280;65074;50.436;8.672;2022-12-18T02:53:35;100874.75;;;-10.72;100.00
76257;BME280;65074;50.436;8.672;2022-12-18T02:56:13;100867.34;;;-10.80;100.00
76257;BME280;65074;50.436;8.672;2022-12-18T02:58:57;100863.66;;;-10.93;100.00
76257;BME280;65074;50.436;8.672;2022-12-18T03:01:42;100854.13;;;-10.92;100.00
76257;BME280;65074;50.436;8.672;2022-12-18T03:08:02;100875.53;;;-11.04;100.00
76257;BME280;65074;50.436;8.672;2022-12-18T03:10:38;100886.81;;;-11.05;100.00
76257;BME280;65074;50.436;8.672;2022-12-18T03:13:09;100882.38;;;-11.03;100.00
76257;BME280;65074;50.436;8.672;2022-12-18T03:15:51;100860.84;;;-11.05;100.00
76257;BME280;65074;50.436;8.672;2022-12-18T03:18:25;100851.38;;;-11.06;100.00
76257;BME280;65074;50.436;8.672;2022-12-18T03:20:53;100848.69;;;-11.05;100.00
76257;BME280;65074;50.436;8.672;2022-12-18T03:23:24;100847.69;;;-11.02;100.00
76257;BME280;65074;50.436;8.672;2022-12-18T03:25:57;100858.78;;;-10.99;100.00
76257;BME280;65074;50.436;8.672;2022-12-18T03:28:28;100859.69;;;-11.00;100.00
76257;BME280;65074;50.436;8.672;2022-12-18T03:31:01;100861.44;;;-11.00;100.00
76257;BME280;65074;50.436;8.672;2022-12-18T03:33:52;100855.97;;;-11.11;100.00
76257;BME280;65074;50.436;8.672;2022-12-18T03:36:17;100864.44;;;-11.08;100.00
76257;BME280;65074;50.436;8.672;2022-12-18T03:38:43;100864.53;;;-11.09;100.00
76257;BME280;65074;50.436;8.672;2022-12-18T03:49:43;100856.41;;;-11.20;100.00
76257;BME280;65074;50.436;8.672;2022-12-18T03:52:26;100862.16;;;-11.14;100.00
76257;BME280;65074;50.436;8.672;2022-12-18T03:54:54;100855.22;;;-11.13;100.00
76257;BME280;65074;50.436;8.672;2022-12-18T03:57:23;100850.91;;;-11.14;100.00
76257;BME280;65074;50.436;8.672;2022-12-18T03:59:56;100859.41;;;-11.11;100.00
76257;BME280;65074;50.436;8.672;2022-12-18T04:02:28;100856.03;;;-11.13;100.00
76257;BME280;65074;50.436;8.672;2022-12-18T04:05:00;100859.56;;;-11.14;100.00
76257;BME280;65074;50.436;8.672;2022-12-18T04:07:28;100846.44;;;-11.11;100.00
76257;BME280;65074;50.436;8.672;2022-12-18T04:09:58;100855.81;;;-11.08;100.00
76257;BME280;65074;50.436;8.672;2022-12-18T04:12:25;100856.63;;;-11.08;100.00
76257;BME280;65074;50.436;8.672;2022-12-18T04:14:51;100847.56;;;-10.99;100.00
76257;BME280;65074;50.436;8.672;2022-12-18T04:17:17;100866.13;;;-11.07;100.00
76257;BME280;65074;50.436;8.672;2022-12-18T04:19:43;100854.84;;;-11.06;100.00
76257;BME280;65074;50.436;8.672;2022-12-18T04:22:10;100852.66;;;-10.98;100.00
76257;BME280;65074;50.436;8.672;2022-12-18T04:24:41;100846.56;;;-10.97;100.00
76257;BME280;65074;50.436;8.672;2022-12-18T04:27:17;100835.22;;;-10.96;100.00
76257;BME280;65074;50.436;8.672;2022-12-18T04:29:47;100845.41;;;-10.91;100.00
76257;BME280;65074;50.436;8.672;2022-12-18T04:32:13;100850.44;;;-10.88;100.00
76257;BME280;65074;50.436;8.672;2022-12-18T04:34:42;100849.38;;;-10.84;100.00
76257;BME280;65074;50.436;8.672;2022-12-18T04:37:07;100846.78;;;-10.84;100.00
76257;BME280;65074;50.436;8.672;2022-12-18T04:39:33;100849.38;;;-10.84;100.00
76257;BME280;65074;50.436;8.672;2022-12-18T04:42:04;100840.66;;;-10.83;100.00
76257;BME280;65074;50.436;8.672;2022-12-18T04:44:30;100841.44;;;-10.81;100.00
76257;BME280;65074;50.436;8.672;2022-12-18T04:46:55;100843.25;;;-10.83;100.00
76257;BME280;65074;50.436;8.672;2022-12-18T04:49:21;100839.97;;;-10.87;100.00
76257;BME280;65074;50.436;8.672;2022-12-18T04:51:46;100837.91;;;-10.80;100.00
76257;BME280;65074;50.436;8.672;2022-12-18T04:54:12;100836.28;;;-10.83;100.00
76257;BME280;65074;50.436;8.672;2022-12-18T04:56:37;100849.28;;;-10.83;100.00
76257;BME280;65074;50.436;8.672;2022-12-18T04:59:02;100848.69;;;-10.88;100.00
76257;BME280;65074;50.436;8.672;2022-12-18T05:01:28;100854.41;;;-10.98;100.00
76257;BME280;65074;50.436;8.672;2022-12-18T05:03:53;100848.78;;;-11.06;100.00
76257;BME280;65074;50.436;8.672;2022-12-18T05:06:18;100845.94;;;-11.02;100.00
76257;BME280;65074;50.436;8.672;2022-12-18T05:08:44;100845.34;;;-11.07;100.00
76257;BME280;65074;50.436;8.672;2022-12-18T05:11:12;100848.41;;;-11.16;100.00
76257;BME280;65074;50.436;8.672;2022-12-18T05:13:39;100851.22;;;-11.20;100.00
76257;BME280;65074;50.436;8.672;2022-12-18T05:16:04;100856.59;;;-11.23;100.00
76257;BME280;65074;50.436;8.672;2022-12-18T05:18:30;100860.47;;;-11.32;100.00
76257;BME280;65074;50.436;8.672;2022-12-18T05:20:56;100869.31;;;-11.36;100.00
76257;BME280;65074;50.436;8.672;2022-12-18T05:23:23;100862.16;;;-11.31;100.00
76257;BME280;65074;50.436;8.672;2022-12-18T05:25:53;100851.81;;;-11.33;100.00
76257;BME280;65074;50.436;8.672;2022-12-18T05:28:19;100855.72;;;-11.41;100.00
76257;BME280;65074;50.436;8.672;2022-12-18T05:30:52;100854.34;;;-11.48;100.00
76257;BME280;65074;50.436;8.672;2022-12-18T05:33:19;100864.66;;;-11.47;100.00
76257;BME280;65074;50.436;8.672;2022-12-18T05:35:53;100857.13;;;-11.53;100.00
76257;BME280;65074;50.436;8.672;2022-12-18T05:38:20;100861.50;;;-11.53;100.00
76257;BME280;65074;50.436;8.672;2022-12-18T05:40:47;100862.31;;;-11.53;100.00
76257;BME280;65074;50.436;8.672;2022-12-18T05:43:12;100864.94;;;-11.53;100.00
76257;BME280;65074;50.436;8.672;2022-12-18T05:45:39;100862.19;;;-11.50;100.00
76257;BME280;65074;50.436;8.672;2022-12-18T05:48:05;100864.94;;;-11.53;100.00
76257;BME280;65074;50.436;8.672;2022-12-18T05:50:30;100867.38;;;-11.50;100.00
76257;BME280;65074;50.436;8.672;2022-12-18T05:53:00;100864.03;;;-11.52;100.00
76257;BME280;65074;50.436;8.672;2022-12-18T05:55:26;100863.78;;;-11.47;100.00
76257;BME280;65074;50.436;8.672;2022-12-18T05:57:51;100864.13;;;-11.53;100.00
76257;BME280;65074;50.436;8.672;2022-12-18T06:00:16;100869.00;;;-11.47;100.00
76257;BME280;65074;50.436;8.672;2022-12-18T06:02:42;100869.47;;;-11.39;100.00
76257;BME280;65074;50.436;8.672;2022-12-18T06:05:07;100868.75;;;-11.43;100.00
76257;BME280;65074;50.436;8.672;2022-12-18T06:07:33;100871.31;;;-11.41;100.00
76257;BME280;65074;50.436;8.672;2022-12-18T06:09:58;100864.66;;;-11.47;100.00
76257;BME280;65074;50.436;8.672;2022-12-18T06:12:23;100866.41;;;-11.47;100.00
76257;BME280;65074;50.436;8.672;2022-12-18T06:14:49;100875.88;;;-11.46;100.00
76257;BME280;65074;50.436;8.672;2022-12-18T06:17:14;100877.47;;;-11.44;100.00
76257;BME280;65074;50.436;8.672;2022-12-18T06:19:39;100875.31;;;-11.53;100.00
76257;BME280;65074;50.436;8.672;2022-12-18T06:22:05;100882.91;;;-11.48;100.00
76257;BME280;65074;50.436;8.672;2022-12-18T06:24:30;100879.75;;;-11.55;100.00
76257;BME280;65074;50.436;8.672;2022-12-18T06:26:55;100877.00;;;-11.52;100.00
76257;BME280;65074;50.436;8.672;2022-12-18T06:29:21;100870.28;;;-11.56;100.00
76257;BME280;65074;50.436;8.672;2022-12-18T06:31:46;100873.72;;;-11.55;100.00
76257;BME280;65074;50.436;8.672;2022-12-18T06:34:12;100873.03;;;-11.59;100.00
76257;BME280;65074;50.436;8.672;2022-12-18T06:36:37;100868.81;;;-11.61;100.00
76257;BME280;65074;50.436;8.672;2022-12-18T06:39:02;100872.25;;;-11.61;100.00
76257;BME280;65074;50.436;8.672;2022-12-18T06:41:28;100877.47;;;-11.61;100.00
76257;BME280;65074;50.436;8.672;2022-12-18T06:43:53;100884.31;;;-11.60;100.00
76257;BME280;65074;50.436;8.672;2022-12-18T06:46:19;100878.06;;;-11.56;100.00
76257;BME280;65074;50.436;8.672;2022-12-18T06:48:47;100883.09;;;-11.53;100.00
76257;BME280;65074;50.436;8.672;2022-12-18T06:51:16;100883.03;;;-11.51;100.00
76257;BME280;65074;50.436;8.672;2022-12-18T06:53:41;100887.38;;;-11.52;100.00
76257;BME280;65074;50.436;8.672;2022-12-18T06:56:07;100885.63;;;-11.51;100.00
76257;BME280;65074;50.436;8.672;2022-12-18T06:58:32;100895.25;;;-11.53;100.00
76257;BME280;65074;50.436;8.672;2022-12-18T07:01:02;100898.63;;;-11.51;100.00
76257;BME280;65074;50.436;8.672;2022-12-18T07:03:28;100897.63;;;-11.49;100.00
76257;BME280;65074;50.436;8.672;2022-12-18T07:05:54;100903.28;;;-11.58;100.00
76257;BME280;65074;50.436;8.672;2022-12-18T07:08:19;100913.72;;;-11.59;100.00
76257;BME280;65074;50.436;8.672;2022-12-18T07:10:45;100907.63;;;-11.58;100.00
76257;BME280;65074;50.436;8.672;2022-12-18T07:13:10;100915.63;;;-11.63;100.00
76257;BME280;65074;50.436;8.672;2022-12-18T07:15:36;100920.22;;;-11.68;100.00
76257;BME280;65074;50.436;8.672;2022-12-18T07:18:02;100913.41;;;-11.70;100.00
76257;BME280;65074;50.436;8.672;2022-12-18T07:20:27;100913.47;;;-11.72;100.00
76257;BME280;65074;50.436;8.672;2022-12-18T07:22:52;100918.66;;;-11.72;100.00
76257;BME280;65074;50.436;8.672;2022-12-18T07:25:18;100916.84;;;-11.70;100.00
76257;BME280;65074;50.436;8.672;2022-12-18T07:27:43;100918.66;;;-11.72;100.00
76257;BME280;65074;50.436;8.672;2022-12-18T07:30:09;100920.22;;;-11.68;100.00
76257;BME280;65074;50.436;8.672;2022-12-18T07:32:35;100912.44;;;-11.68;100.00
76257;BME280;65074;50.436;8.672;2022-12-18T07:35:00;100908.16;;;-11.69;100.00
76257;BME280;65074;50.436;8.672;2022-12-18T07:37:25;100907.00;;;-11.63;100.00
76257;BME280;65074;50.436;8.672;2022-12-18T07:39:51;100910.47;;;-11.64;100.00
76257;BME280;65074;50.436;8.672;2022-12-18T07:42:16;100907.25;;;-11.68;100.00
76257;BME280;65074;50.436;8.672;2022-12-18T07:45:00;100912.44;;;-11.68;100.00
76257;BME280;65074;50.436;8.672;2022-12-18T07:47:27;100908.59;;;-11.61;100.00
76257;BME280;65074;50.436;8.672;2022-12-18T07:49:52;100906.44;;;-11.70;100.00
76257;BME280;65074;50.436;8.672;2022-12-18T07:52:18;100909.00;;;-11.68;100.00
76257;BME280;65074;50.436;8.672;2022-12-18T07:54:43;100907.91;;;-11.64;100.00
76257;BME280;65074;50.436;8.672;2022-12-18T07:57:09;100909.13;;;-11.71;100.00
76257;BME280;65074;50.436;8.672;2022-12-18T07:59:34;100902.78;;;-11.66;100.00
76257;BME280;65074;50.436;8.672;2022-12-18T08:02:00;100907.25;;;-11.68;100.00
76257;BME280;65074;50.436;8.672;2022-12-18T08:04:26;100905.38;;;-11.66;100.00
76257;BME280;65074;50.436;8.672;2022-12-18T08:06:51;100908.59;;;-11.61;100.00
76257;BME280;65074;50.436;8.672;2022-12-18T08:09:17;100900.59;;;-11.56;100.00
76257;BME280;65074;50.436;8.672;2022-12-18T08:11:43;100903.81;;;-11.51;100.00
76257;BME280;65074;50.436;8.672;2022-12-18T08:14:09;100904.44;;;-11.46;100.00
76257;BME280;65074;50.436;8.672;2022-12-18T08:16:35;100902.50;;;-11.43;100.00
76257;BME280;65074;50.436;8.672;2022-12-18T08:19:01;100897.94;;;-11.38;100.00
76257;BME280;65074;50.436;8.672;2022-12-18T08:21:29;100896.66;;;-11.29;100.00
76257;BME280;65074;50.436;8.672;2022-12-18T08:23:58;100890.16;;;-11.20;100.00
76257;BME280;65074;50.436;8.672;2022-12-18T08:26:27;100877.50;;;-11.09;100.00
76257;BME280;65074;50.436;8.672;2022-12-18T08:28:55;100877.19;;;-11.03;100.00
76257;BME280;65074;50.436;8.672;2022-12-18T08:31:20;100864.50;;;-10.92;100.00
76257;BME280;65074;50.436;8.672;2022-12-18T08:33:48;100863.97;;;-10.82;100.00
76257;BME280;65074;50.436;8.672;2022-12-18T08:36:14;100866.69;;;-10.68;100.00
76257;BME280;65074;50.436;8.672;2022-12-18T08:38:40;100870.66;;;-10.61;100.00
76257;BME280;65074;50.436;8.672;2022-12-18T08:41:07;100872.78;;;-10.51;100.00
76257;BME280;65074;50.436;8.672;2022-12-18T08:43:34;100868.78;;;-10.41;100.00
76257;BME280;65074;50.436;8.672;2022-12-18T08:46:19;100874.25;;;-10.30;100.00
76257;BME280;65074;50.436;8.672;2022-12-18T08:48:45;100874.72;;;-10.22;100.00
76257;BME280;65074;50.436;8.672;2022-12-18T08:51:10;100863.59;;;-10.10;100.00
76257;BME280;65074;50.436;8.672;2022-12-18T08:53:36;100867.97;;;-9.95;100.00
76257;BME280;65074;50.436;8.672;2022-12-18T08:56:03;100862.38;;;-9.87;100.00
76257;BME280;65074;50.436;8.672;2022-12-18T08:58:29;100852.50;;;-9.67;100.00
76257;BME280;65074;50.436;8.672;2022-12-18T09:01:00;100861.31;;;-9.54;100.00
76257;BME280;65074;50.436;8.672;2022-12-18T09:03:26;100858.13;;;-9.43;100.00
76257;BME280;65074;50.436;8.672;2022-12-18T09:05:51;100852.78;;;-9.26;100.00
76257;BME280;65074;50.436;8.672;2022-12-18T09:08:17;100852.41;;;-9.20;100.00
76257;BME280;65074;50.436;8.672;2022-12-18T09:10:47;100851.13;;;-9.13;100.00
76257;BME280;65074;50.436;8.672;2022-12-18T09:13:13;100854.41;;;-9.09;100.00
76257;BME280;65074;50.436;8.672;2022-12-18T09:15:43;100856.56;;;-9.02;100.00
76257;BME280;65074;50.436;8.672;2022-12-18T09:18:10;100859.75;;;-8.97;100.00
76257;BME280;65074;50.436;8.672;2022-12-18T09:20:36;100871.41;;;-8.88;100.00
76257;BME280;65074;50.436;8.672;2022-12-18T09:23:02;100874.94;;;-8.89;100.00
76257;BME280;65074;50.436;8.672;2022-12-18T09:25:29;100882.69;;;-8.74;100.00
76257;BME280;65074;50.436;8.672;2022-12-18T09:28:02;100870.03;;;-8.66;100.00
76257;BME280;65074;50.436;8.672;2022-12-18T09:30:28;100871.63;;;-8.63;100.00
76257;BME280;65074;50.436;8.672;2022-12-18T09:32:53;100869.03;;;-8.49;100.00
76257;BME280;65074;50.436;8.672;2022-12-18T09:35:19;100866.63;;;-8.38;100.00
76257;BME280;65074;50.436;8.672;2022-12-18T09:37:44;100873.50;;;-8.23;100.00
76257;BME280;65074;50.436;8.672;2022-12-18T09:40:18;100871.59;;;-8.07;100.00
76257;BME280;65074;50.436;8.672;2022-12-18T09:42:48;100879.22;;;-7.89;100.00
76257;BME280;65074;50.436;8.672;2022-12-18T09:45:17;100870.53;;;-7.76;100.00
76257;BME280;65074;50.436;8.672;2022-12-18T09:47:45;100878.03;;;-7.57;100.00
76257;BME280;65074;50.436;8.672;2022-12-18T09:50:23;100866.22;;;-7.36;100.00
76257;BME280;65074;50.436;8.672;2022-12-18T09:52:53;100856.53;;;-7.21;100.00
76257;BME280;65074;50.436;8.672;2022-12-18T09:55:41;100863.56;;;-7.09;100.00
76257;BME280;65074;50.436;8.672;2022-12-18T09:58:13;100856.88;;;-7.01;100.00
76257;BME280;65074;50.436;8.672;2022-12-18T10:00:40;100850.34;;;-6.94;100.00
76257;BME280;65074;50.436;8.672;2022-12-18T10:03:14;100856.91;;;-6.88;100.00
76257;BME280;65074;50.436;8.672;2022-12-18T10:13:52;100860.81;;;-6.69;100.00
76257;BME280;65074;50.436;8.672;2022-12-18T10:16:29;100869.91;;;-6.62;100.00
76257;BME280;65074;50.436;8.672;2022-12-18T10:19:21;100868.88;;;-6.46;100.00
76257;BME280;65074;50.436;8.672;2022-12-18T10:24:53;100850.25;;;-6.42;100.00
76257;BME280;65074;50.436;8.672;2022-12-18T10:27:19;100851.59;;;-6.24;100.00
76257;BME280;65074;50.436;8.672;2022-12-18T10:29:46;100853.28;;;-6.23;100.00
76257;BME280;65074;50.436;8.672;2022-12-18T10:32:18;100855.44;;;-6.17;100.00
76257;BME280;65074;50.436;8.672;2022-12-18T10:34:49;100853.00;;;-6.07;100.00
76257;BME280;65074;50.436;8.672;2022-12-18T10:37:16;100847.69;;;-6.06;100.00
76257;BME280;65074;50.436;8.672;2022-12-18T10:39:42;100846.19;;;-5.97;100.00
76257;BME280;65074;50.436;8.672;2022-12-18T10:42:17;100836.56;;;-5.97;100.00
76257;BME280;65074;50.436;8.672;2022-12-18T10:44:43;100833.09;;;-5.97;100.00
76257;BME280;65074;50.436;8.672;2022-12-18T10:47:15;100829.66;;;-5.98;100.00
76257;BME280;65074;50.436;8.672;2022-12-18T10:49:49;100826.31;;;-6.12;100.00
76257;BME280;65074;50.436;8.672;2022-12-18T10:52:17;100823.44;;;-5.97;100.00
76257;BME280;65074;50.436;8.672;2022-12-18T10:54:52;100820.22;;;-6.00;100.00
76257;BME280;65074;50.436;8.672;2022-12-18T10:57:40;100831.09;;;-5.93;100.00
76257;BME280;65074;50.436;8.672;2022-12-18T11:02:50;100825.88;;;-5.93;100.00
76257;BME280;65074;50.436;8.672;2022-12-18T11:05:29;100826.63;;;-5.80;100.00
76257;BME280;65074;50.436;8.672;2022-12-18T11:07:55;100838.56;;;-5.76;100.00
76257;BME280;65074;50.436;8.672;2022-12-18T11:10:25;100834.97;;;-5.86;100.00
76257;BME280;65074;50.436;8.672;2022-12-18T11:12:51;100846.09;;;-5.96;100.00
76257;BME280;65074;50.436;8.672;2022-12-18T11:15:20;100835.50;;;-5.94;100.00
76257;BME280;65074;50.436;8.672;2022-12-18T11:17:48;100820.63;;;-5.93;100.00
76257;BME280;65074;50.436;8.672;2022-12-18T11:20:34;100817.88;;;-5.92;100.00
76257;BME280;65074;50.436;8.672;2022-12-18T11:23:01;100817.94;;;-5.81;100.00
76257;BME280;65074;50.436;8.672;2022-12-18T11:25:28;100818.44;;;-5.76;100.00
76257;BME280;65074;50.436;8.672;2022-12-18T11:28:02;100811.31;;;-5.74;100.00
76257;BME280;65074;50.436;8.672;2022-12-18T11:30:34;100797.69;;;-5.55;100.00
76257;BME280;65074;50.436;8.672;2022-12-18T11:33:09;100790.63;;;-5.66;100.00
76257;BME280;65074;50.436;8.672;2022-12-18T11:35:48;100781.50;;;-5.49;100.00
76257;BME280;65074;50.436;8.672;2022-12-18T11:38:17;100778.28;;;-5.53;100.00
76257;BME280;65074;50.436;8.672;2022-12-18T11:40:51;100779.41;;;-5.44;100.00
76257;BME280;65074;50.436;8.672;2022-12-18T11:43:48;100774.66;;;-5.39;100.00
76257;BME280;65074;50.436;8.672;2022-12-18T11:46:36;100779.69;;;-5.25;100.00
76257;BME280;65074;50.436;8.672;2022-12-18T11:49:06;100797.22;;;-5.26;100.00
76257;BME280;65074;50.436;8.672;2022-12-18T11:51:41;100798.66;;;-5.21;100.00
76257;BME280;65074;50.436;8.672;2022-12-18T11:54:14;100782.84;;;-5.44;100.00
76257;BME280;65074;50.436;8.672;2022-12-18T11:56:49;100785.41;;;-5.31;100.00
76257;BME280;65074;50.436;8.672;2022-12-18T11:59:20;100790.88;;;-5.58;100.00
76257;BME280;65074;50.436;8.672;2022-12-18T12:01:55;100796.47;;;-5.62;100.00
76257;BME280;65074;50.436;8.672;2022-12-18T12:04:31;100799.03;;;-5.50;100.00
76257;BME280;65074;50.436;8.672;2022-12-18T12:07:25;100798.69;;;-5.45;100.00
76257;BME280;65074;50.436;8.672;2022-12-18T12:18:09;100794.34;;;-5.57;100.00
76257;BME280;65074;50.436;8.672;2022-12-18T12:26:34;100788.88;;;-5.54;100.00
76257;BME280;65074;50.436;8.672;2022-12-18T12:29:10;100786.56;;;-5.35;100.00
76257;BME280;65074;50.436;8.672;2022-12-18T12:32:12;100787.81;;;-5.52;100.00
76257;BME280;65074;50.436;8.672;2022-12-18T12:40:17;100779.34;;;-5.55;100.00
